Time;durP1;ratioP1;P1;durP2;ratioP2;P2;SDS_P1;SDS_P2;PMS_P1;PMS_P2;Temp;Humidity;BMP_temperature;BMP_pressure;BME280_temperature;BME280_humidity;BME280_pressure;Samples;Min_cycle;Max_cycle;Signal;HPM_P1;HPM_P2
2022/07/09 00:00:23;;;;;;;6.97;5.53;;;16.20;99.90;;;;;;4868465;29;20223;-60
2022/07/09 00:02:52;;;;;;;7.43;5.17;;;16.20;99.90;;;;;;4881081;29;20218;-60
2022/07/09 00:05:20;;;;;;;6.50;5.90;;;16.20;99.90;;;;;;4872134;29;20555;-60
2022/07/09 00:07:48;;;;;;;5.97;5.57;;;16.10;99.90;;;;;;4872676;29;20231;-60
2022/07/09 00:10:17;;;;;;;9.60;5.83;;;16.10;99.90;;;;;;4875454;29;20667;-60
2022/07/09 00:12:48;;;;;;;8.97;5.80;;;16.10;99.90;;;;;;4873003;29;20583;-60
2022/07/09 00:15:18;;;;;;;9.63;6.13;;;16.10;99.90;;;;;;4871374;29;20203;-60
2022/07/09 00:17:46;;;;;;;6.83;6.10;;;16.10;99.90;;;;;;4872115;29;20691;-61
2022/07/09 00:20:15;;;;;;;8.00;6.07;;;16.00;99.90;;;;;;4871549;29;20306;-60
2022/07/09 00:22:43;;;;;;;5.93;5.43;;;16.00;99.90;;;;;;4874043;29;20270;-60
2022/07/09 00:25:12;;;;;;;6.17;5.40;;;16.00;99.90;;;;;;4871478;29;20212;-60
2022/07/09 00:27:40;;;;;;;6.30;5.70;;;16.00;99.90;;;;;;4867403;29;20206;-60
2022/07/09 00:30:09;;;;;;;6.67;6.07;;;16.00;99.90;;;;;;4870276;29;20287;-60
2022/07/09 00:32:39;;;;;;;7.27;5.70;;;15.90;99.90;;;;;;4871388;29;20294;-60
2022/07/09 00:35:08;;;;;;;7.23;5.93;;;15.90;99.90;;;;;;4870904;29;20209;-60
2022/07/09 00:37:37;;;;;;;10.43;6.10;;;15.80;99.90;;;;;;4868213;29;20197;-60
2022/07/09 00:40:07;;;;;;;6.97;6.37;;;15.80;99.90;;;;;;4864765;29;20220;-60
2022/07/09 00:42:35;;;;;;;7.70;6.90;;;15.80;99.90;;;;;;4870673;29;20194;-60
2022/07/09 00:45:04;;;;;;;13.53;6.63;;;15.80;99.90;;;;;;4868205;29;20199;-60
2022/07/09 00:47:32;;;;;;;7.27;6.57;;;15.80;99.90;;;;;;4875036;29;20323;-60
2022/07/09 00:50:02;;;;;;;8.50;6.80;;;15.80;99.90;;;;;;4874706;29;20216;-60
2022/07/09 00:52:33;;;;;;;8.60;7.07;;;15.80;99.90;;;;;;4874936;29;20703;-60
2022/07/09 00:55:02;;;;;;;9.27;7.27;;;15.80;99.90;;;;;;4872266;29;20194;-60
2022/07/09 00:57:32;;;;;;;6.73;6.23;;;15.70;99.90;;;;;;4871329;29;20295;-60
2022/07/09 01:00:01;;;;;;;8.43;6.90;;;15.70;99.90;;;;;;4867225;29;20595;-60
2022/07/09 01:02:30;;;;;;;8.73;6.90;;;15.70;99.90;;;;;;4869313;29;20223;-60
2022/07/09 01:04:58;;;;;;;7.50;6.80;;;15.60;99.90;;;;;;4871423;29;20690;-60
2022/07/09 01:07:28;;;;;;;7.80;7.00;;;15.60;99.90;;;;;;4871522;29;20286;-60
2022/07/09 01:09:57;;;;;;;11.00;7.03;;;15.60;99.90;;;;;;4868220;29;20215;-61
2022/07/09 01:12:26;;;;;;;7.70;7.00;;;15.60;99.90;;;;;;4873909;29;20731;-60
2022/07/09 01:14:54;;;;;;;7.70;6.57;;;15.60;99.90;;;;;;4867658;29;20252;-60
2022/07/09 01:17:23;;;;;;;7.47;6.77;;;15.60;99.90;;;;;;4870336;29;20208;-60
2022/07/09 01:19:51;;;;;;;7.67;6.87;;;15.70;99.90;;;;;;4864136;29;20215;-60
2022/07/09 01:22:21;;;;;;;8.13;6.60;;;15.80;99.90;;;;;;4870075;29;20274;-60
2022/07/09 01:24:51;;;;;;;7.17;6.20;;;15.80;99.90;;;;;;4871530;29;20203;-60
2022/07/09 01:27:19;;;;;;;8.73;6.70;;;15.90;99.90;;;;;;4866128;29;20306;-61
2022/07/09 01:29:49;;;;;;;9.20;6.70;;;15.90;99.90;;;;;;4870723;29;20210;-60
2022/07/09 01:32:18;;;;;;;8.33;6.93;;;16.00;99.90;;;;;;4872941;29;20269;-60
2022/07/09 01:34:46;;;;;;;10.33;6.77;;;16.00;99.90;;;;;;4872395;29;20230;-61
2022/07/09 01:37:15;;;;;;;7.60;6.30;;;16.00;99.90;;;;;;4866260;29;20210;-60
2022/07/09 01:39:51;;;;;;;7.87;6.50;;;16.00;99.90;;;;;;4867364;29;20295;-60
2022/07/09 01:42:20;;;;;;;7.80;6.07;;;16.00;99.90;;;;;;4886257;29;20271;-61
2022/07/09 01:44:49;;;;;;;7.13;6.53;;;16.00;99.90;;;;;;4868791;29;20272;-60
2022/07/09 01:47:17;;;;;;;11.87;6.80;;;15.90;99.90;;;;;;4872103;29;20298;-60
2022/07/09 01:49:46;;;;;;;6.60;5.90;;;15.90;99.90;;;;;;4869995;29;20560;-60
2022/07/09 01:52:15;;;;;;;7.93;6.13;;;15.80;99.90;;;;;;4867067;29;20571;-60
2022/07/09 01:54:45;;;;;;;6.63;6.13;;;15.80;99.90;;;;;;4865547;29;20610;-60
2022/07/09 01:57:13;;;;;;;6.70;6.10;;;15.80;99.90;;;;;;4886211;29;20258;-60
2022/07/09 01:59:42;;;;;;;7.43;6.83;;;15.80;99.90;;;;;;4873003;29;20716;-60
2022/07/09 02:02:10;;;;;;;8.50;7.03;;;15.70;99.90;;;;;;4867647;29;20633;-60
2022/07/09 02:04:39;;;;;;;7.20;6.60;;;15.70;99.90;;;;;;4867882;29;20199;-60
2022/07/09 02:07:08;;;;;;;7.30;6.70;;;15.70;99.90;;;;;;4869016;29;20263;-60
2022/07/09 02:09:36;;;;;;;10.77;6.43;;;15.70;99.90;;;;;;4879381;29;20286;-60
2022/07/09 02:12:07;;;;;;;12.13;7.13;;;15.70;99.90;;;;;;4869194;29;20228;-60
2022/07/09 02:14:37;;;;;;;8.90;6.87;;;15.70;99.90;;;;;;4864664;29;20293;-60
2022/07/09 02:17:06;;;;;;;6.77;6.23;;;15.70;99.90;;;;;;4865209;29;20204;-60
2022/07/09 02:19:34;;;;;;;10.60;6.63;;;15.70;99.90;;;;;;4869971;29;20209;-60
2022/07/09 02:22:04;;;;;;;10.33;6.90;;;15.70;99.90;;;;;;4871139;29;20243;-60
2022/07/09 02:24:32;;;;;;;8.20;7.10;;;15.70;99.90;;;;;;4866148;29;20298;-60
2022/07/09 02:27:01;;;;;;;9.57;7.63;;;15.70;99.90;;;;;;4863751;29;20206;-61
2022/07/09 02:29:30;;;;;;;8.83;6.93;;;15.70;99.90;;;;;;4868445;29;20303;-60
2022/07/09 02:31:59;;;;;;;10.30;7.70;;;15.60;99.90;;;;;;4868931;29;20242;-60
2022/07/09 02:34:27;;;;;;;9.10;7.40;;;15.60;99.90;;;;;;4870909;29;20214;-60
2022/07/09 02:36:55;;;;;;;8.23;7.37;;;15.60;99.90;;;;;;4867310;29;20205;-60
2022/07/09 02:39:24;;;;;;;7.83;7.07;;;15.50;99.90;;;;;;4868670;29;20193;-60
2022/07/09 02:41:52;;;;;;;10.10;8.13;;;15.50;99.90;;;;;;4869138;29;20219;-60
2022/07/09 02:44:20;;;;;;;12.27;9.00;;;15.50;99.90;;;;;;4871918;29;20211;-60
2022/07/09 02:46:50;;;;;;;9.53;8.63;;;15.50;99.90;;;;;;4873490;29;20205;-60
2022/07/09 02:49:21;;;;;;;12.70;8.93;;;15.50;99.90;;;;;;4869645;29;20862;-60
2022/07/09 02:51:49;;;;;;;13.93;9.53;;;15.60;99.90;;;;;;4872797;29;20210;-60
2022/07/09 02:54:20;;;;;;;11.77;9.13;;;15.60;99.90;;;;;;4869672;29;23238;-60
2022/07/09 02:56:48;;;;;;;11.93;10.37;;;15.60;99.90;;;;;;4869164;29;20262;-60
2022/07/09 02:59:17;;;;;;;12.17;10.23;;;15.60;99.90;;;;;;4866269;29;20285;-60
2022/07/09 03:01:45;;;;;;;11.37;9.47;;;15.60;99.90;;;;;;4863840;29;20228;-60
2022/07/09 03:04:15;;;;;;;11.17;10.00;;;15.60;99.90;;;;;;4872194;29;20203;-60
2022/07/09 03:06:43;;;;;;;10.60;9.60;;;15.60;99.90;;;;;;4869494;29;20294;-60
2022/07/09 03:09:12;;;;;;;12.83;10.80;;;15.50;99.90;;;;;;4870998;29;20856;-60
2022/07/09 03:11:41;;;;;;;16.23;10.77;;;15.50;99.90;;;;;;4852152;29;20314;-60
2022/07/09 03:14:09;;;;;;;14.07;10.90;;;15.50;99.90;;;;;;4867824;29;20290;-61
2022/07/09 03:16:37;;;;;;;14.23;10.97;;;15.40;99.90;;;;;;4866426;29;20212;-60
2022/07/09 03:19:06;;;;;;;17.03;11.17;;;15.40;99.90;;;;;;4871156;29;20206;-60
2022/07/09 03:21:37;;;;;;;14.13;11.00;;;15.40;99.90;;;;;;4868251;29;20238;-60
2022/07/09 03:24:08;;;;;;;13.10;10.90;;;15.40;99.90;;;;;;4865472;29;20227;-60
2022/07/09 03:26:36;;;;;;;18.40;11.20;;;15.40;99.90;;;;;;4867894;29;20202;-60
2022/07/09 03:29:07;;;;;;;17.50;11.23;;;15.40;99.90;;;;;;4875056;29;20707;-60
2022/07/09 03:31:35;;;;;;;13.50;10.80;;;15.40;99.90;;;;;;4867705;29;20210;-60
2022/07/09 03:34:05;;;;;;;13.77;10.60;;;15.50;99.90;;;;;;4873335;29;20199;-60
2022/07/09 03:36:34;;;;;;;14.47;11.70;;;15.50;99.90;;;;;;4868211;29;20205;-61
2022/07/09 03:39:04;;;;;;;17.13;12.03;;;15.50;99.90;;;;;;4870945;29;21743;-60
2022/07/09 03:41:32;;;;;;;17.67;11.37;;;15.60;99.90;;;;;;4870606;29;20236;-60
2022/07/09 03:44:02;;;;;;;14.77;12.47;;;15.60;99.90;;;;;;4872716;29;20208;-60
2022/07/09 03:46:31;;;;;;;17.83;12.40;;;15.60;99.90;;;;;;4873573;29;20722;-60
2022/07/09 03:48:59;;;;;;;16.27;12.40;;;15.60;99.90;;;;;;4870277;29;20889;-60
2022/07/09 03:51:28;;;;;;;16.87;12.77;;;15.70;99.90;;;;;;4874276;29;20208;-60
2022/07/09 03:53:56;;;;;;;17.57;12.70;;;15.70;99.90;;;;;;4872507;29;20227;-60
2022/07/09 03:56:26;;;;;;;15.27;12.47;;;15.70;99.90;;;;;;4870020;29;20215;-60
2022/07/09 03:58:54;;;;;;;14.20;12.03;;;15.70;99.90;;;;;;4871228;29;20213;-60
2022/07/09 04:01:23;;;;;;;16.20;12.63;;;15.70;99.90;;;;;;4866087;29;20208;-60
2022/07/09 04:03:52;;;;;;;19.07;12.80;;;15.70;99.90;;;;;;4869371;29;20667;-60
2022/07/09 04:06:21;;;;;;;17.63;13.63;;;15.70;99.90;;;;;;4870148;29;20683;-60
2022/07/09 04:08:49;;;;;;;22.70;13.27;;;15.70;99.90;;;;;;4868287;29;20230;-60
2022/07/09 04:11:18;;;;;;;13.87;12.40;;;15.60;99.90;;;;;;4873460;29;20322;-60
2022/07/09 04:13:47;;;;;;;19.10;13.03;;;15.60;99.90;;;;;;4870019;29;20207;-61
2022/07/09 04:16:16;;;;;;;15.40;12.83;;;15.60;99.90;;;;;;4875025;29;20212;-60
2022/07/09 04:18:45;;;;;;;15.13;12.53;;;15.60;99.90;;;;;;4866292;29;20227;-60
2022/07/09 04:21:14;;;;;;;15.60;13.77;;;15.60;99.90;;;;;;4870654;29;20251;-60
2022/07/09 04:23:42;;;;;;;19.00;13.57;;;15.70;99.90;;;;;;4874499;29;20301;-60
2022/07/09 04:26:11;;;;;;;15.57;13.37;;;15.70;99.90;;;;;;4866150;29;20216;-60
2022/07/09 04:28:39;;;;;;;16.37;13.20;;;15.70;99.90;;;;;;4887903;29;20195;-60
2022/07/09 04:31:09;;;;;;;19.30;13.40;;;15.70;99.90;;;;;;4869846;29;20318;-60
2022/07/09 04:33:38;;;;;;;18.93;13.53;;;15.80;99.90;;;;;;4870955;29;20206;-60
2022/07/09 04:36:06;;;;;;;19.83;13.67;;;15.80;99.90;;;;;;4868193;29;20294;-60
2022/07/09 04:38:35;;;;;;;17.57;14.40;;;15.80;99.90;;;;;;4872124;29;20225;-61
2022/07/09 04:41:04;;;;;;;15.10;13.60;;;15.80;99.90;;;;;;4868697;29;20208;-60
2022/07/09 04:43:33;;;;;;;17.17;13.43;;;15.90;99.90;;;;;;4865461;29;20692;-60
2022/07/09 04:46:01;;;;;;;16.27;13.27;;;15.90;99.90;;;;;;4875495;29;20211;-60
2022/07/09 04:48:31;;;;;;;14.37;12.83;;;16.00;99.90;;;;;;4870832;29;20190;-60
2022/07/09 04:51:00;;;;;;;18.93;14.50;;;16.00;99.90;;;;;;4871261;29;20207;-61
2022/07/09 04:53:29;;;;;;;17.63;13.40;;;16.10;99.90;;;;;;4872961;29;20210;-60
2022/07/09 04:55:57;;;;;;;14.43;12.93;;;16.10;99.90;;;;;;4866940;29;20219;-60
2022/07/09 04:58:25;;;;;;;17.97;13.33;;;16.20;99.90;;;;;;4873497;29;20202;-61
2022/07/09 05:00:54;;;;;;;16.10;12.80;;;16.30;99.90;;;;;;4871888;29;20674;-60
2022/07/09 05:03:22;;;;;;;16.00;12.83;;;16.40;99.90;;;;;;4873982;29;20219;-60
2022/07/09 05:05:52;;;;;;;17.80;13.30;;;16.50;99.90;;;;;;4886325;29;20731;-60
2022/07/09 05:08:21;;;;;;;14.27;12.40;;;16.60;99.90;;;;;;4871051;29;20291;-60
2022/07/09 05:10:49;;;;;;;13.83;11.90;;;16.80;99.90;;;;;;4871483;29;20289;-60
2022/07/09 05:13:18;;;;;;;16.07;12.90;;;16.80;99.90;;;;;;4872910;29;20208;-60
2022/07/09 05:15:46;;;;;;;17.50;11.53;;;16.90;99.90;;;;;;4871070;29;20282;-60
2022/07/09 05:18:15;;;;;;;14.40;12.47;;;16.90;99.90;;;;;;4871148;29;20199;-60
2022/07/09 05:20:43;;;;;;;17.17;12.70;;;17.00;99.90;;;;;;4872354;29;20235;-60
2022/07/09 05:23:13;;;;;;;15.33;12.10;;;17.00;99.90;;;;;;4869896;29;20326;-60
2022/07/09 05:25:42;;;;;;;19.07;12.77;;;17.10;99.90;;;;;;4871747;29;20901;-60
2022/07/09 05:28:11;;;;;;;16.20;12.43;;;17.30;99.90;;;;;;4882364;29;20582;-61
2022/07/09 05:30:39;;;;;;;15.40;12.20;;;17.40;99.90;;;;;;4866621;29;20199;-60
2022/07/09 05:33:08;;;;;;;16.77;12.60;;;17.60;99.90;;;;;;4871561;29;20625;-60
2022/07/09 05:35:36;;;;;;;19.40;11.33;;;17.90;99.90;;;;;;4871320;29;20699;-60
2022/07/09 05:38:05;;;;;;;12.70;11.03;;;18.10;99.90;;;;;;4867429;29;20203;-60
2022/07/09 05:40:35;;;;;;;17.50;12.30;;;18.30;99.90;;;;;;4866761;29;20269;-60
2022/07/09 05:43:03;;;;;;;15.03;11.57;;;18.50;99.90;;;;;;4884673;29;20219;-61
2022/07/09 05:45:31;;;;;;;16.43;12.87;;;18.70;99.90;;;;;;4871759;29;20547;-61
2022/07/09 05:48:00;;;;;;;17.23;11.87;;;18.90;99.90;;;;;;4866909;29;20207;-61
2022/07/09 05:50:28;;;;;;;15.47;13.03;;;19.00;99.90;;;;;;4867680;29;20207;-61
2022/07/09 05:52:57;;;;;;;18.20;13.87;;;19.20;99.90;;;;;;4871313;29;20282;-61
2022/07/09 05:55:25;;;;;;;19.17;12.97;;;19.30;99.90;;;;;;4870981;29;20211;-61
2022/07/09 05:57:55;;;;;;;16.77;13.50;;;19.40;99.90;;;;;;4871277;29;20214;-61
2022/07/09 06:00:24;;;;;;;20.73;14.50;;;19.50;99.90;;;;;;4871556;29;20284;-61
2022/07/09 06:02:52;;;;;;;17.27;15.17;;;19.70;99.90;;;;;;4873400;29;20237;-61
2022/07/09 06:05:20;;;;;;;20.30;14.50;;;20.00;99.90;;;;;;4871076;29;20214;-61
2022/07/09 06:07:49;;;;;;;16.77;13.60;;;20.30;99.90;;;;;;4870883;29;20290;-61
2022/07/09 06:10:18;;;;;;;14.30;12.80;;;20.50;99.90;;;;;;4870637;29;20211;-61
2022/07/09 06:12:46;;;;;;;17.30;14.33;;;20.60;99.90;;;;;;4871830;29;20231;-61
2022/07/09 06:15:16;;;;;;;17.87;13.57;;;20.80;99.90;;;;;;4864689;29;20719;-61
2022/07/09 06:17:44;;;;;;;14.90;12.47;;;20.80;99.90;;;;;;4868538;29;20634;-61
2022/07/09 06:20:13;;;;;;;17.53;14.00;;;20.90;99.90;;;;;;4860622;29;20764;-61
2022/07/09 06:22:41;;;;;;;18.87;12.10;;;21.20;99.90;;;;;;4868715;29;20234;-61
2022/07/09 06:25:10;;;;;;;18.03;12.13;;;21.40;99.90;;;;;;4865654;29;20207;-61
2022/07/09 06:27:40;;;;;;;17.23;12.43;;;21.70;99.90;;;;;;4865411;29;20626;-61
2022/07/09 06:30:08;;;;;;;15.07;11.23;;;22.10;99.90;;;;;;4866087;29;20566;-61
2022/07/09 06:32:38;;;;;;;15.33;11.27;;;22.20;99.90;;;;;;4865148;29;20215;-61
2022/07/09 06:35:07;;;;;;;13.13;10.63;;;22.30;99.90;;;;;;4866654;29;20212;-61
2022/07/09 06:37:36;;;;;;;15.53;9.60;;;22.40;99.90;;;;;;4865561;29;20305;-62
2022/07/09 06:40:04;;;;;;;9.87;8.83;;;22.50;99.90;;;;;;4871553;29;20294;-62
2022/07/09 06:42:33;;;;;;;13.40;9.30;;;22.50;99.90;;;;;;4871783;29;20211;-62
2022/07/09 06:45:03;;;;;;;13.23;8.93;;;22.70;99.90;;;;;;4870328;29;20238;-61
2022/07/09 06:47:31;;;;;;;12.60;8.57;;;22.70;99.90;;;;;;4869002;29;20203;-62
2022/07/09 06:50:01;;;;;;;8.33;7.60;;;22.70;99.90;;;;;;4871229;29;20226;-61
2022/07/09 06:52:29;;;;;;;10.40;6.90;;;23.00;99.90;;;;;;4878677;29;20206;-61
2022/07/09 06:54:58;;;;;;;7.40;6.60;;;23.20;99.90;;;;;;4875854;29;20287;-61
2022/07/09 06:57:26;;;;;;;12.57;6.80;;;23.40;99.90;;;;;;4872771;29;20217;-62
2022/07/09 06:59:55;;;;;;;8.17;6.77;;;23.70;99.90;;;;;;4874913;29;20207;-61
2022/07/09 07:02:23;;;;;;;7.70;6.97;;;23.90;99.90;;;;;;4872935;29;20306;-62
2022/07/09 07:04:51;;;;;;;9.37;7.10;;;24.00;99.90;;;;;;4872288;29;20310;-61
2022/07/09 07:07:21;;;;;;;9.03;6.70;;;23.70;99.90;;;;;;4874434;29;20209;-61
2022/07/09 07:09:49;;;;;;;10.97;7.33;;;23.30;99.90;;;;;;4874403;29;20787;-61
2022/07/09 07:12:18;;;;;;;8.83;7.40;;;23.30;99.90;;;;;;4870745;29;20732;-61
2022/07/09 07:14:46;;;;;;;8.57;7.37;;;23.50;99.90;;;;;;4868695;29;20218;-61
2022/07/09 07:17:15;;;;;;;10.10;7.47;;;23.70;99.90;;;;;;4888010;29;20667;-61
2022/07/09 07:19:43;;;;;;;8.73;6.90;;;23.60;99.90;;;;;;4869609;29;20214;-61
2022/07/09 07:22:12;;;;;;;8.03;7.27;;;23.40;99.90;;;;;;4875168;29;20251;-61
2022/07/09 07:24:41;;;;;;;10.70;7.20;;;23.30;99.90;;;;;;4869337;29;20218;-61
2022/07/09 07:27:10;;;;;;;11.03;7.47;;;23.00;99.90;;;;;;4875325;29;21851;-61
2022/07/09 07:29:38;;;;;;;8.13;7.30;;;22.70;99.90;;;;;;4873478;29;20265;-61
2022/07/09 07:32:08;;;;;;;11.40;7.50;;;22.60;99.90;;;;;;4876900;29;20232;-61
2022/07/09 07:34:36;;;;;;;9.97;7.60;;;22.80;99.90;;;;;;4874911;29;20263;-61
2022/07/09 07:37:05;;;;;;;12.83;9.30;;;22.90;99.90;;;;;;4874206;29;20212;-61
2022/07/09 07:39:33;;;;;;;10.30;8.17;;;22.70;99.90;;;;;;4874468;29;20200;-61
2022/07/09 07:42:05;;;;;;;15.93;10.17;;;22.90;99.90;;;;;;4874330;29;20269;-61
2022/07/09 07:44:34;;;;;;;17.57;11.10;;;23.20;99.90;;;;;;4874750;29;20636;-61
2022/07/09 07:47:02;;;;;;;13.20;10.73;;;23.70;99.90;;;;;;4876420;29;20273;-61
2022/07/09 07:49:31;;;;;;;12.73;11.37;;;24.00;99.90;;;;;;4873443;29;20288;-61
2022/07/09 07:51:59;;;;;;;15.37;11.87;;;24.20;99.90;;;;;;4871668;29;20242;-61
2022/07/09 07:54:27;;;;;;;12.77;11.52;;;24.20;99.90;;;;;;4876866;29;20379;-61
2022/07/09 07:56:56;;;;;;;11.48;9.57;;;24.60;99.90;;;;;;4874722;29;20281;-61
2022/07/09 07:59:26;;;;;;;19.88;11.70;;;25.20;99.90;;;;;;4874307;29;20240;-61
2022/07/09 08:01:54;;;;;;;14.27;11.75;;;25.50;99.90;;;;;;4871172;29;20565;-62
2022/07/09 08:04:23;;;;;;;12.85;10.82;;;25.90;99.90;;;;;;4874988;29;20649;-62
2022/07/09 08:06:51;;;;;;;12.45;11.15;;;26.10;99.90;;;;;;4871593;29;20202;-62
2022/07/09 08:09:20;;;;;;;10.98;9.85;;;26.40;99.90;;;;;;4869186;29;20214;-62
2022/07/09 08:11:49;;;;;;;10.77;9.75;;;26.70;99.90;;;;;;4868614;29;20227;-62
2022/07/09 08:14:17;;;;;;;13.90;11.10;;;27.30;99.90;;;;;;4870413;29;20206;-62
2022/07/09 08:16:47;;;;;;;14.45;11.57;;;27.70;99.90;;;;;;4872049;29;20207;-62
2022/07/09 08:19:16;;;;;;;12.55;11.20;;;27.90;99.90;;;;;;4870280;29;20214;-62
2022/07/09 08:21:44;;;;;;;17.63;12.93;;;28.00;99.90;;;;;;4867045;29;20323;-62
2022/07/09 08:24:13;;;;;;;18.10;13.35;;;28.30;99.90;;;;;;4871922;29;20314;-62
2022/07/09 08:26:41;;;;;;;17.35;13.88;;;28.30;99.90;;;;;;4869771;29;20187;-62
2022/07/09 08:29:10;;;;;;;15.13;13.05;;;28.40;99.90;;;;;;4874604;29;20211;-62
2022/07/09 08:31:38;;;;;;;23.17;14.63;;;28.60;99.90;;;;;;4865190;29;20227;-62
2022/07/09 08:34:08;;;;;;;21.65;15.88;;;29.00;99.90;;;;;;4869403;29;20270;-62
2022/07/09 08:36:36;;;;;;;22.23;16.77;;;29.10;99.90;;;;;;4874818;29;20272;-62
2022/07/09 08:39:04;;;;;;;18.40;15.30;;;29.40;99.90;;;;;;4870852;29;20311;-62
2022/07/09 08:41:33;;;;;;;21.80;17.25;;;29.40;99.90;;;;;;4867907;29;20305;-62
2022/07/09 08:44:04;;;;;;;20.67;16.63;;;28.70;99.90;;;;;;4867841;29;20235;-61
2022/07/09 08:46:33;;;;;;;25.70;18.73;;;28.70;99.90;;;;;;4874178;29;20713;-62
2022/07/09 08:49:14;;;;;;;21.30;18.92;;;28.80;99.90;;;;;;4866921;29;20211;-62
2022/07/09 08:51:44;;;;;;;24.02;19.88;;;28.30;99.90;;;;;;4863822;29;20241;-62
2022/07/09 08:54:13;;;;;;;29.65;21.17;;;27.70;99.90;;;;;;4864617;29;20217;-61
2022/07/09 08:56:41;;;;;;;23.73;20.45;;;27.10;99.90;;;;;;4858728;29;20208;-61
2022/07/09 08:59:09;;;;;;;23.63;19.95;;;26.50;99.90;;;;;;4873216;29;20556;-61
2022/07/09 09:01:38;;;;;;;24.98;18.80;;;26.50;99.90;;;;;;4870532;29;20211;-62
2022/07/09 09:04:09;;;;;;;25.75;19.75;;;26.30;99.90;;;;;;4872757;29;20281;-61
2022/07/09 09:06:41;;;;;;;25.55;20.27;;;26.00;99.90;;;;;;4875978;29;20191;-61
2022/07/09 09:09:21;;;;;;;30.70;21.67;;;25.70;99.90;;;;;;4870449;29;20209;-61
2022/07/09 09:11:50;;;;;;;27.73;20.37;;;25.30;99.90;;;;;;4874010;29;20228;-61
2022/07/09 09:14:21;;;;;;;26.70;19.40;;;25.20;99.90;;;;;;4869222;29;20209;-61
2022/07/09 09:16:50;;;;;;;25.20;19.10;;;25.10;99.90;;;;;;4874140;29;20210;-61
2022/07/09 09:19:23;;;;;;;28.70;19.57;;;25.00;99.90;;;;;;4871170;29;20676;-61
2022/07/09 09:21:54;;;;;;;23.90;18.70;;;24.90;99.90;;;;;;4865944;29;20321;-61
2022/07/09 09:24:27;;;;;;;26.10;17.83;;;24.80;99.90;;;;;;4869445;29;20206;-61
2022/07/09 09:26:58;;;;;;;23.20;17.77;;;24.80;99.90;;;;;;4871282;29;20206;-61
2022/07/09 09:29:27;;;;;;;28.53;18.73;;;25.30;99.90;;;;;;4869804;29;20882;-61
2022/07/09 09:31:56;;;;;;;20.87;16.83;;;25.30;99.90;;;;;;4875518;29;20195;-61
2022/07/09 09:34:26;;;;;;;18.03;15.43;;;25.20;99.90;;;;;;4870773;29;20214;-61
2022/07/09 09:36:55;;;;;;;17.60;14.33;;;25.00;99.90;;;;;;4874234;29;20282;-61
2022/07/09 09:39:25;;;;;;;18.13;14.33;;;24.90;99.90;;;;;;4872208;29;20206;-61
2022/07/09 09:41:55;;;;;;;17.03;12.63;;;25.10;99.90;;;;;;4876384;29;20226;-61
2022/07/09 09:44:26;;;;;;;16.43;10.60;;;25.70;99.90;;;;;;4886933;29;22202;-61
2022/07/09 09:46:55;;;;;;;16.15;12.73;;;26.80;99.90;;;;;;4872233;29;20222;-61
2022/07/09 09:49:23;;;;;;;16.73;11.20;;;27.60;99.90;;;;;;4874182;29;20259;-61
2022/07/09 09:52:01;;;;;;;14.10;10.45;;;27.50;99.90;;;;;;4871394;29;20575;-61
2022/07/09 09:54:29;;;;;;;12.57;9.23;;;27.20;99.90;;;;;;4873156;29;20248;-61
2022/07/09 09:57:00;;;;;;;10.73;9.27;;;26.40;99.90;;;;;;4871218;29;20215;-61
2022/07/09 09:59:29;;;;;;;10.47;9.00;;;25.60;99.90;;;;;;4872731;29;21206;-61
2022/07/09 10:01:58;;;;;;;12.30;8.30;;;25.40;99.90;;;;;;4864757;29;20334;-61
2022/07/09 10:04:28;;;;;;;11.77;5.97;;;26.00;99.90;;;;;;4870754;29;21007;-61
2022/07/09 10:06:58;;;;;;;6.63;5.18;;;26.50;99.90;;;;;;4873534;29;20222;-61
2022/07/09 10:09:26;;;;;;;5.80;5.23;;;26.90;99.90;;;;;;4875875;29;20202;-61
2022/07/09 10:11:55;;;;;;;9.38;6.35;;;26.70;99.90;;;;;;4865277;29;20215;-61
2022/07/09 10:14:32;;;;;;;5.40;4.90;;;27.40;99.90;;;;;;4875864;29;20208;-61
2022/07/09 10:17:12;;;;;;;10.82;5.45;;;27.60;99.90;;;;;;4875852;29;20204;-61
2022/07/09 10:19:53;;;;;;;4.38;3.97;;;27.90;99.90;;;;;;4876188;29;20196;-61
2022/07/09 10:22:23;;;;;;;4.88;3.47;;;28.20;99.90;;;;;;4874689;29;20689;-61
2022/07/09 10:24:52;;;;;;;3.95;3.10;;;28.40;99.90;;;;;;4864869;29;20663;-61
2022/07/09 10:27:21;;;;;;;7.63;3.08;;;29.10;99.90;;;;;;4871011;29;20195;-61
2022/07/09 10:29:59;;;;;;;2.28;2.10;;;28.80;99.90;;;;;;4876721;29;20205;-61
2022/07/09 10:32:31;;;;;;;2.20;2.10;;;28.00;99.90;;;;;;4875113;29;20248;-61
2022/07/09 10:35:01;;;;;;;3.05;2.63;;;27.00;99.90;;;;;;4877307;29;20205;-61
2022/07/09 10:37:43;;;;;;;2.70;2.22;;;26.40;99.90;;;;;;4876246;29;20202;-61
2022/07/09 10:40:15;;;;;;;4.07;2.30;;;26.10;99.90;;;;;;4882266;29;20203;-61
2022/07/09 10:42:46;;;;;;;2.90;2.70;;;26.20;99.90;;;;;;4866167;29;20210;-61
2022/07/09 10:45:25;;;;;;;3.00;2.53;;;26.20;99.90;;;;;;4876694;29;20286;-61
2022/07/09 10:47:54;;;;;;;2.13;2.03;;;26.00;99.90;;;;;;4877668;29;20199;-61
2022/07/09 10:50:23;;;;;;;2.10;2.00;;;25.90;99.90;;;;;;4876727;29;20215;-61
2022/07/09 10:52:53;;;;;;;2.23;2.03;;;25.90;99.90;;;;;;4880958;29;20200;-61
2022/07/09 10:55:23;;;;;;;2.77;2.43;;;25.70;99.90;;;;;;4877973;29;20331;-61
2022/07/09 10:57:52;;;;;;;2.50;2.30;;;26.30;99.90;;;;;;4872605;29;20277;-61
2022/07/09 11:00:22;;;;;;;2.05;1.80;;;27.20;99.90;;;;;;4871086;29;20243;-61
2022/07/09 11:02:58;;;;;;;1.92;1.70;;;27.70;99.90;;;;;;4875102;29;20213;-61
2022/07/09 11:05:28;;;;;;;2.22;1.65;;;27.20;99.90;;;;;;4874297;29;20663;-61
2022/07/09 11:08:00;;;;;;;1.53;1.30;;;26.70;99.90;;;;;;4873437;29;20211;-61
2022/07/09 11:10:30;;;;;;;2.83;1.63;;;26.20;99.90;;;;;;4872533;29;20360;-61
2022/07/09 11:13:00;;;;;;;3.08;1.60;;;26.40;99.90;;;;;;4874582;29;20258;-61
2022/07/09 11:15:30;;;;;;;2.40;1.87;;;26.90;99.90;;;;;;4875862;29;20203;-61
2022/07/09 11:17:59;;;;;;;2.33;1.80;;;26.80;99.90;;;;;;4876417;29;20198;-61
2022/07/09 11:20:29;;;;;;;3.83;1.80;;;26.50;99.90;;;;;;4872882;29;20287;-60
2022/07/09 11:23:01;;;;;;;3.97;2.20;;;26.10;99.90;;;;;;4873321;29;20763;-61
2022/07/09 11:25:30;;;;;;;2.73;2.00;;;25.70;99.90;;;;;;4875045;29;20563;-61
2022/07/09 11:27:59;;;;;;;1.67;1.57;;;25.50;99.90;;;;;;4877093;29;20622;-60
2022/07/09 11:30:29;;;;;;;1.57;1.57;;;25.50;99.90;;;;;;4874517;29;20206;-60
2022/07/09 11:32:58;;;;;;;4.20;1.53;;;25.30;99.90;;;;;;4874223;29;20302;-60
2022/07/09 11:35:28;;;;;;;2.70;1.87;;;25.30;99.90;;;;;;4875325;29;20200;-60
2022/07/09 11:38:00;;;;;;;3.03;1.57;;;25.40;99.90;;;;;;4878779;29;20292;-60
2022/07/09 11:40:29;;;;;;;1.73;1.50;;;25.30;99.90;;;;;;4871207;29;20205;-60
2022/07/09 11:42:58;;;;;;;4.23;1.53;;;25.40;99.90;;;;;;4875298;29;20309;-61
2022/07/09 11:45:28;;;;;;;3.30;2.30;;;25.60;99.90;;;;;;4878656;29;20267;-60
2022/07/09 11:48:05;;;;;;;3.03;1.90;;;25.20;99.90;;;;;;4878204;29;20228;-60
2022/07/09 11:50:41;;;;;;;3.63;1.60;;;25.40;99.90;;;;;;4878366;29;20213;-61
2022/07/09 11:53:20;;;;;;;4.80;1.30;;;25.80;99.90;;;;;;4877381;29;20213;-61
2022/07/09 11:55:59;;;;;;;1.43;1.30;;;25.70;99.90;;;;;;4887259;29;20277;-60
2022/07/09 11:58:27;;;;;;;1.20;1.10;;;25.60;99.90;;;;;;4877613;29;20265;-60
2022/07/09 12:00:55;;;;;;;1.33;1.20;;;25.80;99.90;;;;;;4877883;29;20206;-61
2022/07/09 12:03:28;;;;;;;2.90;1.43;;;25.70;99.90;;;;;;4879378;29;20207;-61
2022/07/09 12:05:56;;;;;;;1.50;1.40;;;25.40;99.90;;;;;;4871228;29;20279;-60
2022/07/09 12:08:30;;;;;;;1.23;1.23;;;25.00;99.90;;;;;;4878000;29;20292;-61
2022/07/09 12:11:00;;;;;;;3.40;1.40;;;25.00;99.90;;;;;;4871329;29;20231;-61
2022/07/09 12:13:29;;;;;;;2.70;1.53;;;25.40;99.90;;;;;;4875870;29;20203;-60
2022/07/09 12:15:58;;;;;;;1.87;1.33;;;25.40;99.90;;;;;;4877764;29;20206;-61
2022/07/09 12:18:28;;;;;;;4.00;1.30;;;25.30;99.90;;;;;;4873061;29;20674;-61
2022/07/09 12:20:57;;;;;;;1.00;1.00;;;25.30;99.90;;;;;;4874259;29;20231;-60
2022/07/09 12:23:25;;;;;;;3.40;1.30;;;25.20;99.90;;;;;;4874410;29;20305;-61
2022/07/09 12:25:55;;;;;;;3.37;1.20;;;25.20;99.90;;;;;;4875845;29;20217;-61
2022/07/09 12:28:23;;;;;;;3.33;1.13;;;25.20;99.90;;;;;;4878303;29;20233;-61
2022/07/09 12:30:52;;;;;;;1.77;1.30;;;25.00;99.90;;;;;;4877459;29;20678;-61
2022/07/09 12:33:21;;;;;;;2.20;1.30;;;24.70;99.90;;;;;;4875904;29;20681;-61
2022/07/09 12:35:50;;;;;;;4.43;1.20;;;24.40;99.90;;;;;;4877105;29;20287;-61
2022/07/09 12:38:18;;;;;;;3.10;1.23;;;24.30;99.90;;;;;;4874808;29;20208;-62
2022/07/09 12:40:47;;;;;;;1.63;1.57;;;24.20;99.90;;;;;;4876853;29;20206;-61
2022/07/09 12:43:16;;;;;;;1.60;1.50;;;24.20;99.90;;;;;;4876083;29;20833;-61
2022/07/09 12:45:45;;;;;;;1.50;1.23;;;24.30;99.90;;;;;;4877807;29;20202;-61